Time;durP1;ratioP1;P1;durP2;ratioP2;P2;SDS_P1;SDS_P2;PMS_P1;PMS_P2;Temp;Humidity;BMP_temperature;BMP_pressure;BME280_temperature;BME280_humidity;BME280_pressure;Samples;Min_cycle;Max_cycle;Signal;HPM_P1;HPM_P2
2021/04/02 00:00:35;;;;;;;5.37;4.47;;;14.80;37.10;;;;;;5112528;28;20627;-51
2021/04/02 00:03:05;;;;;;;7.47;4.43;;;14.80;37.00;;;;;;5112428;28;20689;-52
2021/04/02 00:05:32;;;;;;;4.30;3.33;;;14.80;37.10;;;;;;5112523;28;21304;-51
2021/04/02 00:08:00;;;;;;;7.37;4.17;;;14.70;37.00;;;;;;5111835;28;20691;-52
2021/04/02 00:10:31;;;;;;;8.67;4.83;;;14.60;37.10;;;;;;5112390;28;20676;-52
2021/04/02 00:12:57;;;;;;;5.77;3.80;;;14.60;37.30;;;;;;5111108;28;21191;-52
2021/04/02 00:15:24;;;;;;;5.40;4.90;;;14.50;37.50;;;;;;5106651;28;20654;-52
2021/04/02 00:17:51;;;;;;;9.40;4.57;;;14.40;37.60;;;;;;5112317;28;21175;-52
2021/04/02 00:20:19;;;;;;;7.67;4.70;;;14.30;37.70;;;;;;5112086;28;20664;-52
2021/04/02 00:22:45;;;;;;;4.30;3.50;;;14.20;37.80;;;;;;5112268;28;20648;-52
2021/04/02 00:25:14;;;;;;;6.17;5.33;;;14.20;38.00;;;;;;5111631;28;20721;-52
2021/04/02 00:27:41;;;;;;;5.77;4.13;;;14.10;38.20;;;;;;5111876;28;20630;-52
2021/04/02 00:30:14;;;;;;;6.20;4.10;;;14.00;38.40;;;;;;5112042;28;20991;-52
2021/04/02 00:32:41;;;;;;;7.93;4.53;;;14.00;38.90;;;;;;5112784;28;20626;-52
2021/04/02 00:35:09;;;;;;;11.27;4.20;;;13.90;38.50;;;;;;5112412;28;20704;-52
2021/04/02 00:37:36;;;;;;;7.07;5.03;;;13.80;38.70;;;;;;5112677;28;20617;-52
2021/04/02 00:40:05;;;;;;;8.70;4.30;;;13.80;39.00;;;;;;5111843;28;21019;-52
2021/04/02 00:42:33;;;;;;;6.23;4.20;;;13.70;39.10;;;;;;5112220;28;20712;-52
2021/04/02 00:45:00;;;;;;;9.73;4.13;;;13.60;39.20;;;;;;5108022;28;20687;-52
2021/04/02 00:47:26;;;;;;;5.83;4.00;;;13.60;39.40;;;;;;5106457;28;20625;-52
2021/04/02 00:49:53;;;;;;;6.63;4.67;;;13.60;39.60;;;;;;5100350;28;20627;-51
2021/04/02 00:52:20;;;;;;;4.53;3.70;;;13.60;40.10;;;;;;5111580;28;20620;-52
2021/04/02 00:54:47;;;;;;;8.50;5.57;;;13.60;40.30;;;;;;5111381;28;20626;-52
2021/04/02 00:57:13;;;;;;;5.83;4.40;;;13.60;40.50;;;;;;5111464;28;20680;-51
2021/04/02 00:59:42;;;;;;;6.60;4.50;;;13.60;40.50;;;;;;5111699;28;20627;-51
2021/04/02 01:02:09;;;;;;;5.53;5.03;;;13.60;40.70;;;;;;5111977;28;20625;-51
2021/04/02 01:04:36;;;;;;;6.43;5.17;;;13.60;40.70;;;;;;5111564;28;20979;-51
2021/04/02 01:07:03;;;;;;;10.37;5.57;;;13.50;40.60;;;;;;5111597;28;20679;-51
2021/04/02 01:09:30;;;;;;;6.83;5.57;;;13.50;40.60;;;;;;5111194;28;20620;-51
2021/04/02 01:11:56;;;;;;;6.83;5.10;;;13.40;40.90;;;;;;5111284;28;20654;-51
2021/04/02 01:14:23;;;;;;;7.90;5.07;;;13.30;41.00;;;;;;5111017;28;20632;-52
2021/04/02 01:16:51;;;;;;;7.60;5.50;;;13.30;41.20;;;;;;5110911;28;20716;-53
2021/04/02 01:19:23;;;;;;;6.53;5.80;;;13.20;41.30;;;;;;5111110;28;20620;-52
2021/04/02 01:21:52;;;;;;;7.57;6.00;;;13.20;41.50;;;;;;5111459;28;20685;-53
2021/04/02 01:24:37;;;;;;;4.97;4.40;;;13.10;41.60;;;;;;5111739;28;20668;-51
2021/04/02 01:27:12;;;;;;;5.83;5.23;;;13.10;42.00;;;;;;5111523;28;20676;-52
2021/04/02 01:29:46;;;;;;;6.37;5.27;;;13.10;42.10;;;;;;5112725;28;20708;-51
2021/04/02 01:32:14;;;;;;;6.93;5.50;;;13.10;42.20;;;;;;5111483;28;20622;-52
2021/04/02 01:34:43;;;;;;;10.40;7.00;;;13.10;42.30;;;;;;5115268;28;20684;-52
2021/04/02 01:37:11;;;;;;;9.27;6.50;;;13.00;42.30;;;;;;5115534;28;20966;-52
2021/04/02 01:39:40;;;;;;;6.90;6.20;;;13.00;42.50;;;;;;5115353;28;21128;-51
2021/04/02 01:42:07;;;;;;;6.67;6.07;;;12.90;42.50;;;;;;5115399;28;20653;-51
2021/04/02 01:44:35;;;;;;;8.20;6.43;;;12.80;42.70;;;;;;5115109;28;20632;-51
2021/04/02 01:47:04;;;;;;;6.00;5.40;;;12.80;42.90;;;;;;5115199;28;20685;-51
2021/04/02 01:49:30;;;;;;;8.30;6.17;;;12.80;43.10;;;;;;5094605;28;21261;-51
2021/04/02 01:51:57;;;;;;;7.90;7.10;;;12.70;43.30;;;;;;5114045;28;20685;-51
2021/04/02 01:54:24;;;;;;;6.20;5.60;;;12.80;43.40;;;;;;5115204;28;20627;-51
2021/04/02 01:56:53;;;;;;;8.33;7.63;;;12.70;43.40;;;;;;5115196;28;20659;-50
2021/04/02 01:59:19;;;;;;;8.47;6.37;;;12.70;43.50;;;;;;5114272;28;20615;-51
2021/04/02 02:01:46;;;;;;;6.33;5.13;;;12.60;43.80;;;;;;5114922;28;20727;-51
2021/04/02 02:04:14;;;;;;;8.10;7.20;;;12.70;43.90;;;;;;5114993;28;20655;-51
2021/04/02 02:06:41;;;;;;;8.40;5.97;;;12.80;44.00;;;;;;5115283;28;21035;-51
2021/04/02 02:09:10;;;;;;;8.43;6.90;;;12.80;44.00;;;;;;5114697;28;21458;-52
2021/04/02 02:11:37;;;;;;;11.87;7.73;;;12.80;44.10;;;;;;5114789;28;21005;-51
2021/04/02 02:14:07;;;;;;;7.57;6.87;;;12.70;43.90;;;;;;5105045;28;20620;-52
2021/04/02 02:16:34;;;;;;;8.27;7.43;;;12.70;44.10;;;;;;5103763;28;20723;-51
2021/04/02 02:19:01;;;;;;;10.90;7.17;;;12.60;44.20;;;;;;5114345;28;20965;-51
2021/04/02 02:21:28;;;;;;;8.30;7.60;;;12.60;44.40;;;;;;5115580;28;20627;-52
2021/04/02 02:23:56;;;;;;;7.30;6.43;;;12.60;44.60;;;;;;5115142;28;20651;-51
2021/04/02 02:26:22;;;;;;;10.77;7.90;;;12.50;45.00;;;;;;5114419;28;20692;-51
2021/04/02 02:28:49;;;;;;;7.40;6.30;;;12.50;44.70;;;;;;5114383;28;20676;-52
2021/04/02 02:31:16;;;;;;;7.77;7.07;;;12.50;45.00;;;;;;5114022;28;20623;-51
2021/04/02 02:33:43;;;;;;;9.20;8.23;;;12.50;45.20;;;;;;5114756;28;20619;-51
2021/04/02 02:36:10;;;;;;;7.50;6.80;;;12.50;45.00;;;;;;5114845;28;21004;-52
2021/04/02 02:38:37;;;;;;;9.60;8.53;;;12.50;44.90;;;;;;5114376;28;21035;-51
2021/04/02 02:41:04;;;;;;;8.13;7.43;;;12.40;45.20;;;;;;5112724;28;20647;-52
2021/04/02 02:43:31;;;;;;;8.93;7.83;;;12.40;45.20;;;;;;5113329;28;20731;-51
2021/04/02 02:45:58;;;;;;;7.90;7.20;;;12.40;45.40;;;;;;5114044;28;20659;-51
2021/04/02 02:48:25;;;;;;;8.53;7.73;;;12.30;45.50;;;;;;5114152;28;20685;-51
2021/04/02 02:50:53;;;;;;;8.37;7.50;;;12.30;45.50;;;;;;5113781;28;20674;-51
2021/04/02 02:53:21;;;;;;;13.23;8.30;;;12.30;45.70;;;;;;5111164;28;20623;-51
2021/04/02 02:55:48;;;;;;;10.13;7.90;;;12.20;45.70;;;;;;5110663;28;20647;-51
2021/04/02 02:58:16;;;;;;;8.50;7.70;;;12.20;45.80;;;;;;5105020;28;20980;-52
2021/04/02 03:00:44;;;;;;;8.80;7.90;;;12.20;46.00;;;;;;5107957;28;20958;-51
2021/04/02 03:03:13;;;;;;;9.53;8.70;;;12.10;46.00;;;;;;5104749;28;20676;-51
2021/04/02 03:05:40;;;;;;;9.23;8.47;;;12.10;46.10;;;;;;5111227;28;20655;-52
2021/04/02 03:08:07;;;;;;;10.20;8.10;;;12.10;46.30;;;;;;5103725;28;20624;-49
2021/04/02 03:10:35;;;;;;;9.60;8.30;;;12.00;46.20;;;;;;5104364;28;20631;-51
2021/04/02 03:13:03;;;;;;;9.97;9.07;;;12.10;46.40;;;;;;5101480;28;20619;-52
2021/04/02 03:15:30;;;;;;;9.37;8.57;;;12.10;46.50;;;;;;5103558;28;20670;-52
2021/04/02 03:17:57;;;;;;;8.90;8.00;;;12.00;46.40;;;;;;5115116;28;20619;-51
2021/04/02 03:20:24;;;;;;;9.40;8.40;;;12.00;46.40;;;;;;5115936;28;20680;-51
2021/04/02 03:22:51;;;;;;;9.30;8.50;;;11.90;46.50;;;;;;5113319;28;20659;-51
2021/04/02 03:25:19;;;;;;;9.73;8.83;;;11.80;46.60;;;;;;5113214;28;20663;-51
2021/04/02 03:27:46;;;;;;;9.53;8.57;;;11.80;46.60;;;;;;5113268;28;20627;-51
2021/04/02 03:30:16;;;;;;;8.80;7.90;;;11.70;46.70;;;;;;5113733;28;20631;-50
2021/04/02 03:32:44;;;;;;;10.67;8.23;;;11.70;46.80;;;;;;5113098;28;21198;-51
2021/04/02 03:35:11;;;;;;;11.10;8.33;;;11.70;47.10;;;;;;5112894;28;20651;-51
2021/04/02 03:37:38;;;;;;;10.17;9.17;;;11.70;47.50;;;;;;5113041;28;20623;-52
2021/04/02 03:40:08;;;;;;;8.93;8.13;;;11.80;47.40;;;;;;5113074;28;21030;-51
2021/04/02 03:42:36;;;;;;;15.27;9.80;;;11.80;47.20;;;;;;5113263;28;20721;-51
2021/04/02 03:45:04;;;;;;;10.33;9.43;;;11.80;47.10;;;;;;5094063;28;20659;-52
2021/04/02 03:47:31;;;;;;;12.20;9.23;;;11.80;47.10;;;;;;5112186;28;20688;-51
2021/04/02 03:49:58;;;;;;;9.87;8.87;;;11.70;47.30;;;;;;5112862;28;20627;-51
2021/04/02 03:52:30;;;;;;;10.47;9.50;;;11.60;47.40;;;;;;5112409;28;20623;-54
2021/04/02 03:54:56;;;;;;;10.60;9.60;;;11.60;47.50;;;;;;5113371;28;20596;-53
2021/04/02 03:57:24;;;;;;;10.03;9.10;;;11.60;47.70;;;;;;5112452;28;21017;-53
2021/04/02 03:59:52;;;;;;;9.47;8.30;;;11.50;47.70;;;;;;5112312;28;20627;-52
2021/04/02 04:02:18;;;;;;;9.90;8.90;;;11.50;47.90;;;;;;5112734;28;21395;-53
2021/04/02 04:04:46;;;;;;;10.23;8.90;;;11.50;48.00;;;;;;5112481;28;20662;-53
2021/04/02 04:07:13;;;;;;;9.43;8.60;;;11.50;48.30;;;;;;5110027;28;20619;-53
2021/04/02 04:09:40;;;;;;;11.43;8.93;;;11.40;48.10;;;;;;5107805;28;20635;-53
2021/04/02 04:12:07;;;;;;;8.77;7.83;;;11.40;48.10;;;;;;5100009;28;20913;-53
2021/04/02 04:14:34;;;;;;;9.90;8.67;;;11.40;48.10;;;;;;5102573;27;20635;-53
2021/04/02 04:17:01;;;;;;;8.57;7.77;;;11.40;48.20;;;;;;5111683;28;20700;-53
2021/04/02 04:19:28;;;;;;;8.80;8.00;;;11.40;48.20;;;;;;5111640;28;20623;-53
2021/04/02 04:21:57;;;;;;;8.60;7.67;;;11.30;48.00;;;;;;5112051;28;20683;-53
2021/04/02 04:24:25;;;;;;;9.50;8.70;;;11.30;48.00;;;;;;5112463;28;21280;-52
2021/04/02 04:26:53;;;;;;;9.30;8.00;;;11.30;48.20;;;;;;5112381;28;20655;-50
2021/04/02 04:29:21;;;;;;;10.60;9.70;;;11.20;48.30;;;;;;5111696;28;20623;-50
2021/04/02 04:31:48;;;;;;;9.77;8.57;;;11.20;48.50;;;;;;5111534;28;20611;-50
2021/04/02 04:34:15;;;;;;;10.50;7.57;;;11.20;48.40;;;;;;5111792;28;20623;-51
2021/04/02 04:36:43;;;;;;;8.67;7.30;;;11.20;48.60;;;;;;5111902;28;20651;-51
2021/04/02 04:39:10;;;;;;;8.20;7.50;;;11.30;48.70;;;;;;5111673;28;21249;-50
2021/04/02 04:41:37;;;;;;;8.60;7.80;;;11.30;48.50;;;;;;5111577;28;21171;-52
2021/04/02 04:44:04;;;;;;;9.07;8.20;;;11.30;48.20;;;;;;5110725;28;20643;-50
2021/04/02 04:46:31;;;;;;;7.77;6.97;;;11.30;48.00;;;;;;5111911;28;20704;-51
2021/04/02 04:48:58;;;;;;;8.80;7.90;;;11.30;48.10;;;;;;5111360;28;20632;-51
2021/04/02 04:51:27;;;;;;;8.77;7.87;;;11.30;48.40;;;;;;5111514;28;21168;-51
2021/04/02 04:53:55;;;;;;;8.63;6.90;;;11.40;48.20;;;;;;5112016;28;20662;-53
2021/04/02 04:56:23;;;;;;;8.47;7.67;;;11.40;48.40;;;;;;5111165;28;20655;-53
2021/04/02 04:58:51;;;;;;;7.60;6.90;;;11.50;48.10;;;;;;5110997;28;20619;-52
2021/04/02 05:01:18;;;;;;;8.70;7.50;;;11.50;47.80;;;;;;5111382;28;21037;-53
2021/04/02 05:03:45;;;;;;;8.27;6.87;;;11.40;47.80;;;;;;5109818;28;20770;-52
2021/04/02 05:06:12;;;;;;;9.73;7.27;;;11.40;47.50;;;;;;5111453;28;20647;-52
2021/04/02 05:08:40;;;;;;;8.00;7.30;;;11.50;47.70;;;;;;5111560;28;20627;-51
2021/04/02 05:11:08;;;;;;;8.13;7.43;;;11.50;47.50;;;;;;5109441;28;20625;-52
2021/04/02 05:13:36;;;;;;;6.27;5.77;;;11.50;47.10;;;;;;5102252;28;20612;-52
2021/04/02 05:16:03;;;;;;;7.57;5.97;;;11.60;46.80;;;;;;5100402;28;20688;-52
2021/04/02 05:18:30;;;;;;;8.57;7.67;;;11.60;46.70;;;;;;5107095;28;20980;-52
2021/04/02 05:20:56;;;;;;;7.30;6.70;;;11.60;46.50;;;;;;5109724;28;20623;-52
2021/04/02 05:23:23;;;;;;;7.83;7.13;;;11.60;46.20;;;;;;5110554;28;20697;-53
2021/04/02 05:25:50;;;;;;;6.50;6.00;;;11.60;46.30;;;;;;5111447;28;20647;-52
2021/04/02 05:28:17;;;;;;;7.10;6.50;;;11.50;46.70;;;;;;5110955;28;20623;-52
2021/04/02 05:30:44;;;;;;;7.17;6.57;;;11.60;46.10;;;;;;5111209;28;20624;-52
2021/04/02 05:33:11;;;;;;;7.27;6.67;;;11.60;46.00;;;;;;5110905;28;20623;-53
2021/04/02 05:35:38;;;;;;;7.67;7.07;;;11.50;45.80;;;;;;5110659;28;20658;-52
2021/04/02 05:38:05;;;;;;;7.67;7.03;;;11.50;45.80;;;;;;5111054;28;21179;-52
2021/04/02 05:40:32;;;;;;;8.03;7.23;;;11.50;45.70;;;;;;5110542;28;20631;-52
2021/04/02 05:43:00;;;;;;;8.20;7.50;;;11.50;45.60;;;;;;5114765;28;20676;-52
2021/04/02 05:45:27;;;;;;;7.97;7.27;;;11.50;45.50;;;;;;5132193;27;20646;-52
2021/04/02 05:47:55;;;;;;;7.63;7.03;;;11.60;45.60;;;;;;5090327;28;20631;-53
2021/04/02 05:50:21;;;;;;;9.30;7.57;;;11.60;45.40;;;;;;5096671;28;20684;-50
2021/04/02 05:52:49;;;;;;;8.03;7.17;;;11.60;45.50;;;;;;5098461;28;20623;-53
2021/04/02 05:55:16;;;;;;;7.17;6.57;;;11.60;45.30;;;;;;5111086;28;20651;-54
2021/04/02 05:57:43;;;;;;;7.33;6.60;;;11.60;45.40;;;;;;5110861;28;21026;-52
2021/04/02 06:00:11;;;;;;;6.80;6.20;;;11.60;45.40;;;;;;5111005;28;20611;-52
2021/04/02 06:02:39;;;;;;;8.30;7.40;;;11.60;45.40;;;;;;5110995;28;20676;-52
2021/04/02 06:05:08;;;;;;;7.53;6.83;;;11.60;45.40;;;;;;5110836;28;20655;-52
2021/04/02 06:07:35;;;;;;;7.73;7.03;;;11.60;45.20;;;;;;5110641;28;20627;-51
2021/04/02 06:10:02;;;;;;;8.03;6.90;;;11.70;45.20;;;;;;5110574;28;20676;-52
2021/04/02 06:12:30;;;;;;;6.77;6.17;;;11.70;45.20;;;;;;5090489;28;20616;-51
2021/04/02 06:14:57;;;;;;;7.53;6.90;;;11.70;45.10;;;;;;5104096;28;21019;-51
2021/04/02 06:17:24;;;;;;;7.60;7.00;;;11.80;44.90;;;;;;5114135;28;21001;-52
2021/04/02 06:20:03;;;;;;;8.57;7.70;;;11.80;44.90;;;;;;5112128;28;20630;-52
2021/04/02 06:22:30;;;;;;;6.87;6.27;;;11.80;44.90;;;;;;5115112;28;21229;-52
2021/04/02 06:25:02;;;;;;;6.73;6.13;;;11.90;44.70;;;;;;5114153;28;20651;-52
2021/04/02 06:27:29;;;;;;;5.67;5.20;;;11.90;44.80;;;;;;5114413;28;20680;-54
2021/04/02 06:30:03;;;;;;;7.80;7.10;;;11.90;44.80;;;;;;5103393;28;20681;-54
2021/04/02 06:32:33;;;;;;;7.70;6.90;;;11.90;44.90;;;;;;5108893;28;20611;-54
2021/04/02 06:35:06;;;;;;;6.37;5.87;;;12.00;45.00;;;;;;5114468;28;20699;-54
2021/04/02 06:37:33;;;;;;;6.70;6.10;;;12.00;44.70;;;;;;5114387;28;21205;-54
2021/04/02 06:40:00;;;;;;;6.40;5.90;;;12.00;44.50;;;;;;5114207;27;20658;-54
2021/04/02 06:42:30;;;;;;;6.20;5.70;;;12.00;44.40;;;;;;5097635;28;20636;-54
2021/04/02 06:45:00;;;;;;;7.37;6.77;;;12.10;44.50;;;;;;5105740;28;20654;-54
2021/04/02 06:47:34;;;;;;;7.13;6.53;;;12.10;44.40;;;;;;5113804;28;20619;-54
2021/04/02 06:50:01;;;;;;;6.53;5.93;;;12.10;44.30;;;;;;5113955;28;20654;-54
2021/04/02 06:52:29;;;;;;;6.13;5.63;;;12.10;44.20;;;;;;5114052;28;21175;-54
2021/04/02 06:54:56;;;;;;;6.27;5.77;;;12.10;44.30;;;;;;5113313;28;21037;-53
2021/04/02 06:57:23;;;;;;;6.83;6.20;;;12.20;44.30;;;;;;5113495;28;20721;-54
2021/04/02 06:59:50;;;;;;;7.20;6.50;;;12.20;44.20;;;;;;5113953;28;21037;-54
2021/04/02 07:02:17;;;;;;;7.63;6.70;;;12.30;44.00;;;;;;5092312;28;20708;-53
2021/04/02 07:04:44;;;;;;;8.70;7.13;;;12.40;44.00;;;;;;5103790;28;20705;-52
2021/04/02 07:07:10;;;;;;;7.00;6.37;;;12.40;44.10;;;;;;5102369;28;20651;-54
2021/04/02 07:09:39;;;;;;;6.83;6.23;;;12.50;44.20;;;;;;5093566;28;20677;-52
2021/04/02 07:12:09;;;;;;;8.20;7.47;;;12.50;43.90;;;;;;5093468;28;20670;-52
2021/04/02 07:14:36;;;;;;;6.43;5.93;;;12.60;43.70;;;;;;5093357;28;20619;-54
2021/04/02 07:17:03;;;;;;;7.80;7.20;;;12.60;43.40;;;;;;5093939;28;20652;-53
2021/04/02 07:19:29;;;;;;;7.67;6.70;;;12.70;43.10;;;;;;5112446;28;21193;-53
2021/04/02 07:21:56;;;;;;;6.80;6.20;;;12.70;42.80;;;;;;5111738;28;20666;-53
2021/04/02 07:24:23;;;;;;;7.60;6.90;;;12.70;42.70;;;;;;5112991;28;20643;-53
2021/04/02 07:26:50;;;;;;;6.50;6.00;;;12.60;42.60;;;;;;5112025;28;20654;-54
2021/04/02 07:29:19;;;;;;;8.23;7.47;;;12.60;42.80;;;;;;5113130;28;20612;-53
2021/04/02 07:31:45;;;;;;;7.67;6.97;;;12.60;42.80;;;;;;5113000;27;20618;-53
2021/04/02 07:34:13;;;;;;;8.10;7.33;;;12.60;42.70;;;;;;5113125;28;21150;-53
2021/04/02 07:36:40;;;;;;;7.20;6.60;;;12.60;42.70;;;;;;5113028;28;20680;-53
2021/04/02 07:39:08;;;;;;;6.33;5.73;;;12.60;42.80;;;;;;5112145;28;21173;-53
2021/04/02 07:41:37;;;;;;;6.10;5.70;;;12.60;42.90;;;;;;5112490;28;20630;-53
2021/04/02 07:44:05;;;;;;;7.20;6.50;;;12.70;42.60;;;;;;5108823;28;20648;-53
2021/04/02 07:46:33;;;;;;;6.17;5.63;;;12.80;42.40;;;;;;5109585;28;20659;-54
2021/04/02 07:49:01;;;;;;;6.43;5.83;;;12.80;42.30;;;;;;5111639;28;21176;-54
2021/04/02 07:51:40;;;;;;;6.07;5.57;;;12.80;42.30;;;;;;5105385;28;20627;-54
2021/04/02 07:54:13;;;;;;;5.77;5.30;;;12.90;42.30;;;;;;5100409;28;21237;-52
2021/04/02 07:56:39;;;;;;;6.47;5.90;;;13.00;42.30;;;;;;5103974;28;21309;-53
2021/04/02 07:59:07;;;;;;;5.63;5.23;;;13.10;42.10;;;;;;5103705;28;20628;-52
2021/04/02 08:01:35;;;;;;;6.50;5.47;;;13.10;41.80;;;;;;5091094;28;20695;-53
2021/04/02 08:04:02;;;;;;;5.90;5.43;;;13.20;41.70;;;;;;5097803;28;21061;-54
2021/04/02 08:06:32;;;;;;;7.63;7.03;;;13.20;41.70;;;;;;5100501;28;21231;-52
2021/04/02 08:08:59;;;;;;;5.57;5.00;;;13.20;41.70;;;;;;5099875;28;20665;-53
2021/04/02 08:11:27;;;;;;;6.00;5.50;;;13.20;41.60;;;;;;5108799;28;21178;-53
2021/04/02 08:13:59;;;;;;;5.30;4.90;;;13.30;41.30;;;;;;5104715;28;20624;-53
2021/04/02 08:16:52;;;;;;;6.20;5.70;;;13.20;41.10;;;;;;5105978;28;20654;-54
2021/04/02 08:19:21;;;;;;;5.50;5.00;;;13.20;41.30;;;;;;5105323;28;20631;-52
2021/04/02 08:21:50;;;;;;;6.90;6.10;;;13.20;41.10;;;;;;5107139;28;20620;-52
2021/04/02 08:24:17;;;;;;;6.37;5.80;;;13.20;41.30;;;;;;5109455;28;20651;-53
2021/04/02 08:26:44;;;;;;;7.03;5.10;;;13.20;41.40;;;;;;5106476;28;20732;-54
2021/04/02 08:29:12;;;;;;;6.40;5.90;;;13.20;41.30;;;;;;5106329;28;21178;-53
2021/04/02 08:31:41;;;;;;;5.90;5.40;;;13.20;41.30;;;;;;5106233;28;20624;-53
2021/04/02 08:34:08;;;;;;;5.27;4.87;;;13.20;41.40;;;;;;5107455;28;20621;-53
2021/04/02 08:36:35;;;;;;;6.37;5.37;;;13.20;41.30;;;;;;5102247;28;20655;-53
2021/04/02 08:39:02;;;;;;;5.43;5.00;;;13.20;41.40;;;;;;5100528;28;20627;-52
2021/04/02 08:41:30;;;;;;;6.50;5.90;;;13.20;41.70;;;;;;5103418;28;20663;-52
2021/04/02 08:43:57;;;;;;;6.60;6.00;;;13.20;41.10;;;;;;5106051;28;20684;-52
2021/04/02 08:46:42;;;;;;;5.53;5.03;;;13.20;41.10;;;;;;5110371;28;21270;-52
2021/04/02 08:49:10;;;;;;;6.60;5.83;;;13.10;41.30;;;;;;5109531;28;20626;-52
2021/04/02 08:51:37;;;;;;;6.23;5.50;;;13.10;41.40;;;;;;5111532;28;20627;-52
2021/04/02 08:54:05;;;;;;;6.80;6.20;;;13.20;41.60;;;;;;5111572;28;20672;-52
2021/04/02 08:56:32;;;;;;;5.63;5.13;;;13.20;41.50;;;;;;5112054;28;20711;-53
2021/04/02 08:58:59;;;;;;;5.43;5.00;;;13.20;41.40;;;;;;5106528;28;20645;-53
2021/04/02 09:01:26;;;;;;;4.90;4.57;;;13.30;41.50;;;;;;5103976;28;20624;-53
2021/04/02 09:03:52;;;;;;;4.63;4.33;;;13.30;41.40;;;;;;5102624;28;20623;-53
2021/04/02 09:06:20;;;;;;;6.33;5.80;;;13.30;41.40;;;;;;5095500;28;20660;-54
2021/04/02 09:08:47;;;;;;;5.47;4.97;;;13.30;41.30;;;;;;5098156;28;20642;-52
2021/04/02 09:11:14;;;;;;;6.40;5.90;;;13.20;41.30;;;;;;5102416;28;20626;-53
2021/04/02 09:13:42;;;;;;;6.10;5.60;;;13.20;41.40;;;;;;5099333;28;20619;-52
2021/04/02 09:16:09;;;;;;;5.70;5.20;;;13.10;41.60;;;;;;5102001;28;20668;-52
2021/04/02 09:18:46;;;;;;;5.50;5.10;;;13.10;41.70;;;;;;5104258;28;20614;-52
2021/04/02 09:21:13;;;;;;;5.87;5.37;;;13.10;41.60;;;;;;5110649;28;20625;-51
2021/04/02 09:23:40;;;;;;;6.53;5.90;;;13.10;41.90;;;;;;5110344;28;20616;-51
2021/04/02 09:26:08;;;;;;;6.93;5.33;;;13.10;41.70;;;;;;5112670;28;21447;-52
2021/04/02 09:28:35;;;;;;;5.97;5.47;;;13.10;41.50;;;;;;5119548;28;20626;-52
2021/04/02 09:31:21;;;;;;;6.40;5.30;;;13.20;41.90;;;;;;5109031;28;20638;-52
2021/04/02 09:33:50;;;;;;;5.50;5.10;;;13.30;41.80;;;;;;5101710;28;20635;-52
2021/04/02 09:36:17;;;;;;;5.50;5.00;;;13.30;41.60;;;;;;5098024;28;20652;-52
2021/04/02 09:38:47;;;;;;;6.10;5.53;;;13.30;42.20;;;;;;5105768;28;20638;-51
2021/04/02 09:41:15;;;;;;;7.13;6.43;;;13.40;41.90;;;;;;5106598;28;20623;-52
2021/04/02 09:43:45;;;;;;;7.00;6.40;;;13.40;42.00;;;;;;5099374;28;20784;-52
2021/04/02 09:46:14;;;;;;;6.37;5.77;;;13.40;41.90;;;;;;5102310;28;20663;-52
2021/04/02 09:48:40;;;;;;;6.37;5.77;;;13.40;41.90;;;;;;5110733;28;20988;-51
2021/04/02 09:51:07;;;;;;;7.53;6.77;;;13.40;42.10;;;;;;5112378;27;20615;-53
2021/04/02 09:53:34;;;;;;;5.30;4.90;;;13.50;42.00;;;;;;5104504;28;20633;-53
2021/04/02 09:56:02;;;;;;;6.97;6.30;;;13.50;42.00;;;;;;5102652;28;21066;-51
2021/04/02 09:58:29;;;;;;;9.50;7.63;;;13.60;42.10;;;;;;5104122;28;20663;-51
2021/04/02 10:00:55;;;;;;;6.47;5.87;;;13.60;41.80;;;;;;5098889;28;20639;-51
2021/04/02 10:03:25;;;;;;;8.20;6.27;;;13.60;41.60;;;;;;5099858;28;20624;-52
2021/04/02 10:05:52;;;;;;;6.77;6.17;;;13.60;41.60;;;;;;5098865;28;20679;-51
2021/04/02 10:08:19;;;;;;;7.47;6.53;;;13.60;41.70;;;;;;5101183;28;21105;-51
2021/04/02 10:10:46;;;;;;;7.17;6.47;;;13.60;41.80;;;;;;5107007;27;21183;-52
2021/04/02 10:13:13;;;;;;;7.87;7.27;;;13.60;41.80;;;;;;5101601;27;20628;-52
2021/04/02 10:15:41;;;;;;;7.07;6.40;;;13.60;41.80;;;;;;5102541;28;21055;-51
2021/04/02 10:18:08;;;;;;;7.83;7.03;;;13.60;41.70;;;;;;5104382;28;20638;-52
2021/04/02 10:20:34;;;;;;;6.43;5.83;;;13.70;41.70;;;;;;5101560;28;21211;-52
2021/04/02 10:23:02;;;;;;;7.77;6.70;;;13.80;41.50;;;;;;5100424;28;20635;-52
2021/04/02 10:25:28;;;;;;;6.77;6.17;;;13.80;41.30;;;;;;5100820;28;20724;-51
2021/04/02 10:27:55;;;;;;;8.80;7.17;;;13.80;41.30;;;;;;5115902;22;20672;-52
2021/04/02 10:30:25;;;;;;;7.20;6.57;;;13.90;41.30;;;;;;5092419;28;20988;-52
2021/04/02 10:32:52;;;;;;;6.87;6.03;;;13.90;41.10;;;;;;5097594;28;20986;-52
2021/04/02 10:35:19;;;;;;;7.17;6.57;;;14.00;41.00;;;;;;5083277;28;20642;-52
2021/04/02 10:37:46;;;;;;;7.83;7.13;;;14.00;41.00;;;;;;5100024;28;20655;-52
2021/04/02 10:40:13;;;;;;;7.70;7.00;;;14.10;41.10;;;;;;5088513;28;20631;-52
2021/04/02 10:42:41;;;;;;;7.73;7.07;;;14.10;41.10;;;;;;5097614;28;20712;-54
2021/04/02 10:45:08;;;;;;;6.93;6.40;;;14.10;40.90;;;;;;5079602;28;20692;-53
2021/04/02 10:47:37;;;;;;;7.33;6.70;;;14.10;40.90;;;;;;5100594;28;20654;-53
2021/04/02 10:50:07;;;;;;;7.67;6.93;;;14.20;41.00;;;;;;5087214;28;20616;-52
2021/04/02 10:52:34;;;;;;;8.03;7.10;;;14.20;40.80;;;;;;5096952;28;20640;-52
2021/04/02 10:55:01;;;;;;;9.03;8.23;;;14.30;40.90;;;;;;5094307;28;20633;-52
2021/04/02 10:57:28;;;;;;;7.97;7.17;;;14.30;40.60;;;;;;5096679;28;21210;-53
2021/04/02 10:59:55;;;;;;;7.27;6.50;;;14.40;40.60;;;;;;5100016;28;20632;-52
2021/04/02 11:02:22;;;;;;;9.13;6.90;;;14.50;40.50;;;;;;5086785;28;20623;-54
2021/04/02 11:04:49;;;;;;;8.13;7.33;;;14.50;40.30;;;;;;5067236;28;20665;-53
2021/04/02 11:07:16;;;;;;;7.33;6.60;;;14.70;40.20;;;;;;5096783;28;20725;-53
2021/04/02 11:09:43;;;;;;;7.30;6.70;;;14.70;40.00;;;;;;5064654;28;20651;-53
2021/04/02 11:12:10;;;;;;;8.03;6.67;;;14.80;40.00;;;;;;5089576;28;20632;-54
2021/04/02 11:14:38;;;;;;;7.03;6.33;;;14.80;39.80;;;;;;5085661;28;20645;-53
2021/04/02 11:17:05;;;;;;;7.40;6.70;;;14.80;39.40;;;;;;5090700;28;20660;-53
2021/04/02 11:19:32;;;;;;;7.03;5.80;;;14.90;40.10;;;;;;5094072;28;20693;-53
2021/04/02 11:22:00;;;;;;;6.77;6.10;;;15.00;39.80;;;;;;5082243;28;20658;-53
2021/04/02 11:24:27;;;;;;;5.93;5.50;;;15.10;39.50;;;;;;5087588;28;20623;-52
2021/04/02 11:26:53;;;;;;;7.47;6.80;;;15.30;39.30;;;;;;5085268;28;20663;-54
2021/04/02 11:29:20;;;;;;;8.60;7.90;;;15.50;39.10;;;;;;5083607;28;20632;-54
2021/04/02 11:31:47;;;;;;;6.10;5.50;;;15.70;38.40;;;;;;5086623;28;20631;-52
2021/04/02 11:34:14;;;;;;;7.00;6.33;;;16.00;38.00;;;;;;5084787;28;20625;-53
2021/04/02 11:36:41;;;;;;;7.37;6.60;;;16.10;37.40;;;;;;5082393;28;20644;-53
2021/04/02 11:39:09;;;;;;;7.50;6.70;;;16.20;37.20;;;;;;5086127;28;20655;-53
2021/04/02 11:41:35;;;;;;;6.50;5.80;;;16.30;37.20;;;;;;5084233;28;20679;-52
2021/04/02 11:44:02;;;;;;;6.63;6.03;;;16.30;36.80;;;;;;5085227;28;21253;-52
2021/04/02 11:46:29;;;;;;;6.80;6.20;;;16.40;36.90;;;;;;5082567;28;21276;-53
2021/04/02 11:48:56;;;;;;;6.20;5.60;;;16.40;36.40;;;;;;5081727;28;20633;-52
2021/04/02 11:51:23;;;;;;;6.60;6.10;;;16.40;36.30;;;;;;5086431;28;20612;-52
2021/04/02 11:53:50;;;;;;;5.73;5.23;;;16.40;36.30;;;;;;5081692;28;20644;-51
2021/04/02 11:56:17;;;;;;;6.93;6.43;;;16.50;36.40;;;;;;5083862;28;20734;-52
2021/04/02 11:58:44;;;;;;;6.57;5.97;;;16.50;36.20;;;;;;5080803;28;20686;-52
2021/04/02 12:01:11;;;;;;;6.17;5.67;;;16.50;36.10;;;;;;5068184;28;20724;-53
2021/04/02 12:03:38;;;;;;;6.93;6.33;;;16.60;36.00;;;;;;5081391;28;20677;-53
2021/04/02 12:06:05;;;;;;;5.80;5.30;;;16.70;35.90;;;;;;5078571;28;20687;-53
2021/04/02 12:08:32;;;;;;;6.20;5.60;;;16.70;35.50;;;;;;5088029;28;20631;-53
2021/04/02 12:10:58;;;;;;;6.73;6.13;;;16.80;35.50;;;;;;5102099;28;20693;-53
2021/04/02 12:13:26;;;;;;;6.37;5.87;;;16.80;35.50;;;;;;5085116;28;20676;-53
2021/04/02 12:15:53;;;;;;;7.80;7.20;;;16.80;35.30;;;;;;5090371;28;20670;-52
2021/04/02 12:18:20;;;;;;;6.20;5.70;;;16.90;35.40;;;;;;5095809;28;20620;-53
2021/04/02 12:20:47;;;;;;;6.07;5.57;;;17.00;35.10;;;;;;5095573;28;20621;-53
2021/04/02 12:23:13;;;;;;;6.27;5.67;;;17.10;34.70;;;;;;5089163;28;20655;-53
2021/04/02 12:25:40;;;;;;;7.17;6.57;;;17.20;34.70;;;;;;5088122;28;20690;-52
2021/04/02 12:28:07;;;;;;;5.20;4.80;;;17.40;34.00;;;;;;5080271;28;20669;-52
2021/04/02 12:30:35;;;;;;;6.00;5.50;;;17.50;33.80;;;;;;5052142;28;21145;-52
2021/04/02 12:33:03;;;;;;;5.80;5.30;;;17.70;33.60;;;;;;5087226;28;20651;-53
2021/04/02 12:35:30;;;;;;;6.00;5.50;;;17.90;33.50;;;;;;5089967;28;20624;-53
2021/04/02 12:37:56;;;;;;;6.70;6.20;;;18.10;33.30;;;;;;5071439;28;20668;-54
2021/04/02 12:40:24;;;;;;;7.07;6.47;;;18.30;33.20;;;;;;5087493;28;20628;-53
2021/04/02 12:42:51;;;;;;;6.83;6.30;;;18.40;32.80;;;;;;5088741;28;20959;-53
2021/04/02 12:45:18;;;;;;;7.47;6.87;;;18.50;33.20;;;;;;5071104;28;20645;-53
2021/04/02 12:47:45;;;;;;;7.23;6.63;;;18.70;33.10;;;;;;5078582;28;20717;-53